createdAt,value
2023-05-16T00:00:40.755Z,19.52
2023-05-16T00:03:07.896Z,19.49
2023-05-16T00:05:35.171Z,19.46
2023-05-16T00:08:02.118Z,19.44
2023-05-16T00:10:29.277Z,19.40
2023-05-16T00:12:56.487Z,19.36
2023-05-16T00:15:25.202Z,19.33
2023-05-16T00:17:52.289Z,19.29
2023-05-16T00:20:23.626Z,19.23
2023-05-16T00:22:51.237Z,19.20
2023-05-16T00:25:18.562Z,19.18
2023-05-16T00:27:45.708Z,19.16
2023-05-16T00:30:13.480Z,19.15
2023-05-16T00:32:40.456Z,19.13
2023-05-16T00:35:10.762Z,19.12
2023-05-16T00:37:38.860Z,19.12
2023-05-16T00:40:06.611Z,19.13
2023-05-16T00:42:33.783Z,19.13
2023-05-16T00:45:00.923Z,19.10
2023-05-16T00:47:28.965Z,19.07
2023-05-16T00:49:56.499Z,19.04
2023-05-16T00:52:23.921Z,19.01
2023-05-16T00:54:51.809Z,18.99
2023-05-16T00:57:18.958Z,18.96
2023-05-16T00:59:46.719Z,18.92
2023-05-16T01:02:14.563Z,18.91
2023-05-16T01:04:42.050Z,18.87
2023-05-16T01:07:08.904Z,18.85
2023-05-16T01:09:36.040Z,18.84
2023-05-16T01:12:13.181Z,18.82
2023-05-16T01:15:01.838Z,18.82
2023-05-16T01:17:44.170Z,18.83
2023-05-16T01:20:18.442Z,18.80
2023-05-16T01:23:15.276Z,18.79
2023-05-16T01:25:49.767Z,18.75
2023-05-16T01:28:17.675Z,18.72
2023-05-16T01:30:45.150Z,18.71
2023-05-16T01:33:12.668Z,18.69
2023-05-16T01:35:44.752Z,18.66
2023-05-16T01:38:17.529Z,18.62
2023-05-16T01:41:06.771Z,18.57
2023-05-16T01:43:42.666Z,18.50
2023-05-16T01:46:10.962Z,18.43
2023-05-16T01:48:43.607Z,18.39
2023-05-16T01:51:11.665Z,18.35
2023-05-16T01:53:39.141Z,18.32
2023-05-16T01:56:09.765Z,18.28
2023-05-16T01:58:36.941Z,18.24
2023-05-16T02:01:04.940Z,18.21
2023-05-16T02:03:32.185Z,18.19
2023-05-16T02:05:59.619Z,18.17
2023-05-16T02:08:26.931Z,18.15
2023-05-16T02:10:53.826Z,18.12
2023-05-16T02:13:21.489Z,18.11
2023-05-16T02:15:48.451Z,18.06
2023-05-16T02:18:15.402Z,18.02
2023-05-16T02:20:43.372Z,17.98
2023-05-16T02:23:10.333Z,17.97
2023-05-16T02:25:37.479Z,17.97
2023-05-16T02:28:04.841Z,17.97
2023-05-16T02:30:31.910Z,17.98
2023-05-16T02:32:58.772Z,17.99
2023-05-16T02:35:26.084Z,17.99
2023-05-16T02:37:53.582Z,17.98
2023-05-16T02:40:20.383Z,17.99
2023-05-16T02:42:47.263Z,18.01
2023-05-16T02:45:15.962Z,18.04
2023-05-16T02:47:44.382Z,18.06
2023-05-16T02:50:11.282Z,18.08
2023-05-16T02:52:38.351Z,18.10
2023-05-16T02:55:21.143Z,18.13
2023-05-16T02:57:50.908Z,18.16
2023-05-16T03:00:18.903Z,18.18
2023-05-16T03:02:46.232Z,18.19
2023-05-16T03:05:13.310Z,18.19
2023-05-16T03:07:40.311Z,18.18
2023-05-16T03:10:08.057Z,18.18
2023-05-16T03:12:34.934Z,18.20
2023-05-16T03:15:02.042Z,18.22
2023-05-16T03:17:29.773Z,18.23
2023-05-16T03:19:57.410Z,18.25
2023-05-16T03:22:24.275Z,18.26
2023-05-16T03:24:51.241Z,18.25
2023-05-16T03:27:18.137Z,18.23
2023-05-16T03:29:44.976Z,18.24
2023-05-16T03:32:12.099Z,18.26
2023-05-16T03:34:39.141Z,18.25
2023-05-16T03:37:06.705Z,18.25
2023-05-16T03:39:33.858Z,18.25
2023-05-16T03:42:00.759Z,18.25
2023-05-16T03:44:27.593Z,18.25
2023-05-16T03:46:56.084Z,18.26
2023-05-16T03:49:26.935Z,18.28
2023-05-16T03:51:53.757Z,18.26
2023-05-16T03:54:20.621Z,18.25
2023-05-16T03:56:47.484Z,18.26
2023-05-16T03:59:14.285Z,18.25
2023-05-16T04:01:41.469Z,18.25
2023-05-16T04:04:08.500Z,18.23
2023-05-16T04:06:35.664Z,18.19
2023-05-16T04:09:02.495Z,18.16
2023-05-16T04:11:29.414Z,18.13
2023-05-16T04:13:57.180Z,18.11
2023-05-16T04:16:24.289Z,18.09
2023-05-16T04:18:51.774Z,18.06
2023-05-16T04:21:18.883Z,18.02
2023-05-16T04:23:45.929Z,18.00
2023-05-16T04:26:13.095Z,17.98
2023-05-16T04:28:40.488Z,17.96
2023-05-16T04:31:08.467Z,17.92
2023-05-16T04:33:35.480Z,17.90
2023-05-16T04:36:02.620Z,17.90
2023-05-16T04:38:29.495Z,17.88
2023-05-16T04:40:56.647Z,17.88
2023-05-16T04:43:23.595Z,17.89
2023-05-16T04:45:50.909Z,17.91
2023-05-16T04:48:17.716Z,17.90
2023-05-16T04:50:44.661Z,17.89
2023-05-16T04:53:11.809Z,17.86
2023-05-16T04:55:38.678Z,17.85
2023-05-16T04:58:05.567Z,17.88
2023-05-16T05:00:32.566Z,17.90
2023-05-16T05:02:59.673Z,17.93
2023-05-16T05:05:27.015Z,17.95
2023-05-16T05:07:54.388Z,18.00
2023-05-16T05:10:21.300Z,18.05
2023-05-16T05:12:48.240Z,18.07
2023-05-16T05:15:15.191Z,18.08
2023-05-16T05:17:42.259Z,18.11
2023-05-16T05:20:10.649Z,18.13
2023-05-16T05:22:37.714Z,18.11
2023-05-16T05:25:05.980Z,18.11
2023-05-16T05:27:32.940Z,18.09
2023-05-16T05:30:00.077Z,18.07
2023-05-16T05:32:27.006Z,18.06
2023-05-16T05:34:53.887Z,18.06
2023-05-16T05:37:21.332Z,18.05
2023-05-16T05:39:48.186Z,18.05
2023-05-16T05:42:15.132Z,18.07
2023-05-16T05:44:42.012Z,18.12
2023-05-16T05:47:09.055Z,18.17
2023-05-16T05:49:36.249Z,18.23
2023-05-16T05:52:03.343Z,18.27
2023-05-16T05:54:30.628Z,18.24
2023-05-16T05:56:58.282Z,18.21
2023-05-16T05:59:25.425Z,18.17
2023-05-16T06:01:53.214Z,18.11
2023-05-16T06:04:20.942Z,18.05
2023-05-16T06:06:47.936Z,18.00
2023-05-16T06:09:15.206Z,17.97
2023-05-16T06:11:43.573Z,17.96
2023-05-16T06:14:11.096Z,17.94
2023-05-16T06:16:40.315Z,17.88
2023-05-16T06:19:07.538Z,17.83
2023-05-16T06:21:34.520Z,17.78
2023-05-16T06:24:01.443Z,17.76
2023-05-16T06:26:28.410Z,17.72
2023-05-16T06:28:55.507Z,17.72
2023-05-16T06:31:22.383Z,17.72
2023-05-16T06:33:49.652Z,17.72
2023-05-16T06:36:16.640Z,17.75
2023-05-16T06:38:43.468Z,17.79
2023-05-16T06:41:10.309Z,17.82
2023-05-16T06:43:37.320Z,17.81
2023-05-16T06:46:04.486Z,17.77
2023-05-16T06:48:31.487Z,17.69
2023-05-16T06:50:58.493Z,17.65
2023-05-16T06:53:25.449Z,17.65
2023-05-16T06:55:52.378Z,17.69
2023-05-16T06:58:19.681Z,17.76
2023-05-16T07:00:46.699Z,17.80
2023-05-16T07:03:13.805Z,17.85
2023-05-16T07:05:41.912Z,17.86
2023-05-16T07:08:10.611Z,17.90
2023-05-16T07:10:37.751Z,17.97
2023-05-16T07:13:05.230Z,18.03
2023-05-16T07:15:34.985Z,18.08
2023-05-16T07:18:01.989Z,18.07
2023-05-16T07:20:28.962Z,18.09
2023-05-16T07:22:57.746Z,18.11
2023-05-16T07:25:25.343Z,18.12
2023-05-16T07:27:52.573Z,18.11
2023-05-16T07:30:19.653Z,18.13
2023-05-16T07:32:46.553Z,18.17
2023-05-16T07:35:13.622Z,18.21
2023-05-16T07:37:42.636Z,18.26
2023-05-16T07:40:10.982Z,18.30
2023-05-16T07:42:37.876Z,18.29
2023-05-16T07:45:07.240Z,18.32
2023-05-16T07:47:34.249Z,18.40
2023-05-16T07:50:01.232Z,18.49
2023-05-16T07:52:28.216Z,18.55
2023-05-16T07:54:55.137Z,18.60
2023-05-16T07:57:24.053Z,18.62
2023-05-16T07:59:52.754Z,18.64
2023-05-16T08:02:19.971Z,18.64
2023-05-16T08:04:47.182Z,18.63
2023-05-16T08:07:14.164Z,18.61
2023-05-16T08:09:41.169Z,18.58
2023-05-16T08:12:08.808Z,18.51
2023-05-16T08:14:37.261Z,18.39
2023-05-16T08:17:04.791Z,18.29
2023-05-16T08:19:33.216Z,18.25
2023-05-16T08:22:00.370Z,18.22
2023-05-16T08:24:27.274Z,18.20
2023-05-16T08:26:54.308Z,18.20
2023-05-16T08:29:21.288Z,18.18
2023-05-16T08:31:48.522Z,18.18
2023-05-16T08:34:18.788Z,18.19
2023-05-16T08:36:46.139Z,18.17
2023-05-16T08:39:13.127Z,18.12
2023-05-16T08:41:40.117Z,18.11
2023-05-16T08:44:07.190Z,18.04
2023-05-16T08:46:36.131Z,18.06
2023-05-16T08:49:07.653Z,18.09
2023-05-16T08:51:37.537Z,18.10
2023-05-16T08:54:07.805Z,18.11
2023-05-16T08:56:35.305Z,18.11
2023-05-16T08:59:02.767Z,18.09
2023-05-16T09:01:30.697Z,18.11
2023-05-16T09:03:57.789Z,18.16
2023-05-16T09:06:25.417Z,18.27
2023-05-16T09:08:53.809Z,18.39
2023-05-16T09:11:21.949Z,18.55
2023-05-16T09:13:49.441Z,18.69
2023-05-16T09:16:20.500Z,18.77
2023-05-16T09:18:57.403Z,18.77
2023-05-16T09:21:27.882Z,18.81
2023-05-16T09:23:55.658Z,18.86
2023-05-16T09:26:22.850Z,18.87
2023-05-16T09:28:53.570Z,18.90
2023-05-16T09:31:22.266Z,18.98
2023-05-16T09:33:52.343Z,19.08
2023-05-16T09:36:19.709Z,19.22
2023-05-16T09:38:47.853Z,19.33
2023-05-16T09:41:15.248Z,19.37
2023-05-16T09:43:43.247Z,19.39
2023-05-16T09:46:16.370Z,19.46
2023-05-16T09:48:49.412Z,19.46
2023-05-16T09:51:16.545Z,19.46
2023-05-16T09:53:43.564Z,19.50
2023-05-16T09:56:11.554Z,19.57
2023-05-16T09:58:39.723Z,19.63
2023-05-16T10:01:07.397Z,19.69
2023-05-16T10:03:35.666Z,19.80
2023-05-16T10:06:03.750Z,19.94
2023-05-16T10:08:32.190Z,19.99
2023-05-16T10:10:59.258Z,20.01
2023-05-16T10:13:30.975Z,19.99
2023-05-16T10:15:59.192Z,19.90
2023-05-16T10:18:30.469Z,19.85
2023-05-16T10:20:58.518Z,19.79
2023-05-16T10:23:26.558Z,19.75
2023-05-16T10:25:53.657Z,19.70
2023-05-16T10:28:21.881Z,19.70
2023-05-16T10:30:49.701Z,19.74
2023-05-16T10:33:18.008Z,19.74
2023-05-16T10:35:45.843Z,19.74
2023-05-16T10:38:14.039Z,19.76
2023-05-16T10:40:41.143Z,19.79
2023-05-16T10:43:10.308Z,19.78
2023-05-16T10:45:43.607Z,19.75
2023-05-16T10:48:15.007Z,19.76
2023-05-16T10:50:45.407Z,19.79
2023-05-16T10:53:16.344Z,19.74
2023-05-16T10:55:59.271Z,19.70
2023-05-16T10:58:42.627Z,19.67
2023-05-16T11:01:48.384Z,19.64
2023-05-16T11:04:15.577Z,19.59
2023-05-16T11:06:42.602Z,19.59
2023-05-16T11:09:15.807Z,19.56
2023-05-16T11:11:52.260Z,19.49
2023-05-16T11:14:23.751Z,19.47
2023-05-16T11:17:11.118Z,19.49
2023-05-16T11:19:45.739Z,19.53
2023-05-16T11:22:17.048Z,19.59
2023-05-16T11:24:52.728Z,19.62
2023-05-16T11:27:24.764Z,19.68
2023-05-16T11:29:52.579Z,19.76
2023-05-16T11:32:21.448Z,19.75
2023-05-16T11:34:48.856Z,19.75
2023-05-16T11:37:17.453Z,19.74
2023-05-16T11:39:44.548Z,19.72
2023-05-16T11:42:11.964Z,19.76
2023-05-16T11:44:40.905Z,19.87
2023-05-16T11:47:08.535Z,19.95
2023-05-16T11:49:35.901Z,20.02
2023-05-16T11:52:15.300Z,20.13
2023-05-16T11:55:07.159Z,20.29
2023-05-16T11:57:34.328Z,20.35
2023-05-16T12:00:21.508Z,20.34
2023-05-16T12:02:50.018Z,20.28
2023-05-16T12:05:17.863Z,20.22
2023-05-16T12:07:45.180Z,20.20
2023-05-16T12:10:14.527Z,20.23
2023-05-16T12:12:42.843Z,20.28
2023-05-16T12:15:10.071Z,20.26
2023-05-16T12:17:37.904Z,20.18
2023-05-16T12:20:11.813Z,20.10
2023-05-16T12:22:42.713Z,20.11
2023-05-16T12:25:44.387Z,20.14
2023-05-16T12:28:13.055Z,20.17
2023-05-16T12:30:44.450Z,20.16
2023-05-16T12:33:13.179Z,20.12
2023-05-16T12:35:44.816Z,20.08
2023-05-16T12:38:16.209Z,20.03
2023-05-16T12:40:43.850Z,19.98
2023-05-16T12:43:15.213Z,19.97
2023-05-16T12:45:43.484Z,19.98
2023-05-16T12:48:14.386Z,19.98
2023-05-16T12:50:42.145Z,19.98
2023-05-16T12:53:18.051Z,19.98
2023-05-16T12:55:45.263Z,20.00
2023-05-16T12:58:14.962Z,20.02
2023-05-16T13:00:42.013Z,20.01
2023-05-16T13:03:09.233Z,19.99
2023-05-16T13:05:39.064Z,20.00
2023-05-16T13:08:06.412Z,20.03
2023-05-16T13:10:33.534Z,20.06
2023-05-16T13:13:00.604Z,20.01
2023-05-16T13:15:28.194Z,19.91
2023-05-16T13:17:55.815Z,19.90
2023-05-16T13:20:22.823Z,19.93
2023-05-16T13:22:49.953Z,19.98
2023-05-16T13:25:17.336Z,20.05
2023-05-16T13:27:44.595Z,20.12
2023-05-16T13:30:12.085Z,20.16
2023-05-16T13:32:39.959Z,20.20
2023-05-16T13:35:07.375Z,20.20
2023-05-16T13:37:34.349Z,20.19
2023-05-16T13:40:01.518Z,20.22
2023-05-16T13:42:28.832Z,20.26
2023-05-16T13:44:55.835Z,20.23
2023-05-16T13:47:22.854Z,20.23
2023-05-16T13:49:49.941Z,20.31
2023-05-16T13:52:17.093Z,20.39
2023-05-16T13:54:44.116Z,20.43
2023-05-16T13:57:11.814Z,20.46
2023-05-16T14:00:10.825Z,20.52
2023-05-16T14:02:26.435Z,20.63
2023-05-16T14:04:54.034Z,20.74
2023-05-16T14:07:21.340Z,20.82
2023-05-16T14:09:48.298Z,20.88
2023-05-16T14:12:15.287Z,20.92
2023-05-16T14:14:42.311Z,20.99
2023-05-16T14:17:09.400Z,21.05
2023-05-16T14:19:36.608Z,21.13
2023-05-16T14:22:03.824Z,21.20
2023-05-16T14:24:30.775Z,21.22
2023-05-16T14:26:57.969Z,21.17
2023-05-16T14:29:25.967Z,21.16
2023-05-16T14:31:53.386Z,21.14
2023-05-16T14:34:20.790Z,21.09
2023-05-16T14:36:48.103Z,21.12
2023-05-16T14:39:15.809Z,21.08
2023-05-16T14:41:42.810Z,21.08
2023-05-16T14:44:09.969Z,21.04
2023-05-16T14:46:37.001Z,21.00
2023-05-16T14:49:04.205Z,20.97
2023-05-16T14:51:32.582Z,20.95
2023-05-16T14:53:59.548Z,20.94
2023-05-16T14:56:28.205Z,20.93
2023-05-16T14:58:55.341Z,20.90
2023-05-16T15:01:22.914Z,20.87
2023-05-16T15:03:56.006Z,20.80
2023-05-16T15:06:24.746Z,20.72
2023-05-16T15:08:52.121Z,20.69
2023-05-16T15:11:19.733Z,20.62
2023-05-16T15:13:46.984Z,20.54
2023-05-16T15:16:14.269Z,20.51
2023-05-16T15:18:42.058Z,20.48
2023-05-16T15:21:09.376Z,20.49
2023-05-16T15:23:36.908Z,20.51
2023-05-16T15:26:04.899Z,20.53
2023-05-16T15:28:31.989Z,20.54
2023-05-16T15:30:59.147Z,20.52
2023-05-16T15:33:26.614Z,20.46
2023-05-16T15:35:53.955Z,20.41
2023-05-16T15:38:20.998Z,20.39
2023-05-16T15:40:50.796Z,20.35
2023-05-16T15:43:25.444Z,20.31
2023-05-16T15:45:52.537Z,20.30
2023-05-16T15:48:19.765Z,20.30
2023-05-16T15:50:46.735Z,20.32
2023-05-16T15:53:13.737Z,20.34
2023-05-16T15:55:41.175Z,20.37
2023-05-16T15:58:08.210Z,20.41
2023-05-16T16:00:35.231Z,20.43
2023-05-16T16:03:02.343Z,20.43
2023-05-16T16:05:29.905Z,20.42
2023-05-16T16:07:57.097Z,20.43
2023-05-16T16:10:24.369Z,20.40
2023-05-16T16:13:01.753Z,20.37
2023-05-16T16:15:32.608Z,20.34
2023-05-16T16:18:00.709Z,20.31
2023-05-16T16:20:28.024Z,20.26
2023-05-16T16:22:55.031Z,20.21
2023-05-16T16:25:22.085Z,20.17
2023-05-16T16:27:49.163Z,20.16
2023-05-16T16:30:16.080Z,20.13
2023-05-16T16:32:43.112Z,20.12
2023-05-16T16:35:10.268Z,20.12
2023-05-16T16:37:37.304Z,20.12
2023-05-16T16:40:05.285Z,20.11
2023-05-16T16:42:32.444Z,20.10
2023-05-16T16:44:59.599Z,20.08
2023-05-16T16:47:26.663Z,20.03
2023-05-16T16:49:53.672Z,20.01
2023-05-16T16:52:20.766Z,19.99
2023-05-16T16:54:47.918Z,19.98
2023-05-16T16:57:15.067Z,19.95
2023-05-16T16:59:42.330Z,19.91
2023-05-16T17:02:10.336Z,19.87
2023-05-16T17:04:37.358Z,19.85
2023-05-16T17:07:04.918Z,19.79
2023-05-16T17:09:32.486Z,19.73
2023-05-16T17:12:04.749Z,19.71
2023-05-16T17:14:31.737Z,19.70
2023-05-16T17:16:58.735Z,19.66
2023-05-16T17:19:25.978Z,19.64
2023-05-16T17:21:53.278Z,19.65
2023-05-16T17:24:20.234Z,19.65
2023-05-16T17:26:47.493Z,19.63
2023-05-16T17:29:14.543Z,19.63
2023-05-16T17:31:41.695Z,19.64
2023-05-16T17:34:08.758Z,19.64
2023-05-16T17:36:37.240Z,19.63
2023-05-16T17:39:08.395Z,19.61
2023-05-16T17:41:35.871Z,19.59
2023-05-16T17:44:03.213Z,19.55
2023-05-16T17:46:30.367Z,19.50
2023-05-16T17:48:57.499Z,19.44
2023-05-16T17:51:24.674Z,19.41
2023-05-16T17:53:52.664Z,19.36
2023-05-16T17:56:19.825Z,19.31
2023-05-16T17:58:46.791Z,19.28
2023-05-16T18:01:13.923Z,19.22
2023-05-16T18:03:43.877Z,19.16
2023-05-16T18:06:12.170Z,19.12
2023-05-16T18:08:39.300Z,19.10
2023-05-16T18:11:07.560Z,19.08
2023-05-16T18:13:34.815Z,19.06
2023-05-16T18:16:02.687Z,19.04
2023-05-16T18:18:29.673Z,19.02
2023-05-16T18:20:57.109Z,19.00
2023-05-16T18:23:25.378Z,18.99
2023-05-16T18:25:53.059Z,18.99
2023-05-16T18:28:21.389Z,18.99
2023-05-16T18:30:49.613Z,18.99
2023-05-16T18:33:17.692Z,19.00
2023-05-16T18:35:44.950Z,19.01
2023-05-16T18:38:20.220Z,19.02
2023-05-16T18:40:56.127Z,19.02
2023-05-16T18:43:23.399Z,19.03
2023-05-16T18:45:50.669Z,19.05
2023-05-16T18:48:20.885Z,19.06
2023-05-16T18:50:48.046Z,19.08
2023-05-16T18:53:15.407Z,19.09
2023-05-16T18:55:42.561Z,19.10
2023-05-16T18:58:09.716Z,19.11
2023-05-16T19:00:36.761Z,19.12
2023-05-16T19:03:06.602Z,19.12
2023-05-16T19:05:34.780Z,19.11
2023-05-16T19:08:02.073Z,19.10
2023-05-16T19:10:29.690Z,19.06
2023-05-16T19:12:57.153Z,19.05
2023-05-16T19:15:24.311Z,19.05
2023-05-16T19:17:53.613Z,19.04
2023-05-16T19:20:21.731Z,19.03
2023-05-16T19:22:48.784Z,19.01
2023-05-16T19:25:15.707Z,19.00
2023-05-16T19:27:43.164Z,19.00
2023-05-16T19:30:13.127Z,18.99
2023-05-16T19:32:40.261Z,18.98
2023-05-16T19:35:08.065Z,18.96
2023-05-16T19:37:35.391Z,18.94
2023-05-16T19:40:06.012Z,18.92
2023-05-16T19:42:33.156Z,18.92
2023-05-16T19:45:00.213Z,18.91
2023-05-16T19:47:27.392Z,18.91
2023-05-16T19:49:54.527Z,18.90
2023-05-16T19:52:21.691Z,18.88
2023-05-16T19:54:48.733Z,18.86
2023-05-16T19:57:15.793Z,18.85
2023-05-16T19:59:42.834Z,18.85
2023-05-16T20:02:09.890Z,18.84
2023-05-16T20:04:37.090Z,18.84
2023-05-16T20:07:04.314Z,18.83
2023-05-16T20:09:31.935Z,18.82
2023-05-16T20:11:59.076Z,18.81
2023-05-16T20:14:26.390Z,18.80
2023-05-16T20:16:53.652Z,18.79
2023-05-16T20:19:20.976Z,18.78
2023-05-16T20:21:48.164Z,18.78
2023-05-16T20:24:15.630Z,18.76
2023-05-16T20:26:42.786Z,18.75
2023-05-16T20:29:11.331Z,18.73
2023-05-16T20:31:38.426Z,18.71
2023-05-16T20:34:05.651Z,18.70
2023-05-16T20:36:32.943Z,18.68
2023-05-16T20:38:59.996Z,18.66
2023-05-16T20:41:27.050Z,18.65
2023-05-16T20:43:54.741Z,18.61
2023-05-16T20:46:22.105Z,18.60
2023-05-16T20:48:49.292Z,18.59
2023-05-16T20:51:17.312Z,18.59
2023-05-16T20:53:44.370Z,18.58
2023-05-16T20:56:11.420Z,18.57
2023-05-16T20:58:42.312Z,18.57
2023-05-16T21:01:09.727Z,18.56
2023-05-16T21:03:37.366Z,18.54
2023-05-16T21:06:04.855Z,18.53
2023-05-16T21:08:32.015Z,18.51
2023-05-16T21:10:59.172Z,18.49
2023-05-16T21:13:26.533Z,18.46
2023-05-16T21:15:53.587Z,18.46
2023-05-16T21:18:20.899Z,18.46
2023-05-16T21:20:48.103Z,18.45
2023-05-16T21:23:15.357Z,18.45
2023-05-16T21:25:42.371Z,18.44
2023-05-16T21:28:09.471Z,18.43
2023-05-16T21:30:36.429Z,18.42
2023-05-16T21:33:03.392Z,18.40
2023-05-16T21:35:30.699Z,18.38
2023-05-16T21:37:57.682Z,18.38
2023-05-16T21:40:26.054Z,18.36
2023-05-16T21:42:53.325Z,18.34
2023-05-16T21:45:22.123Z,18.33
2023-05-16T21:47:49.226Z,18.32
2023-05-16T21:50:16.339Z,18.31
2023-05-16T21:52:43.493Z,18.29
2023-05-16T21:55:10.649Z,18.28
2023-05-16T21:57:37.738Z,18.27
2023-05-16T22:00:09.414Z,18.25
2023-05-16T22:02:36.817Z,18.25
2023-05-16T22:05:04.593Z,18.23
2023-05-16T22:07:31.998Z,18.22
2023-05-16T22:09:59.114Z,18.19
2023-05-16T22:12:27.175Z,18.18
2023-05-16T22:14:54.472Z,18.16
2023-05-16T22:17:21.607Z,18.15
2023-05-16T22:19:48.916Z,18.13
2023-05-16T22:22:16.051Z,18.14
2023-05-16T22:24:42.938Z,18.12
2023-05-16T22:27:10.321Z,18.10
2023-05-16T22:29:40.119Z,18.09
2023-05-16T22:32:07.961Z,18.08
2023-05-16T22:34:36.599Z,18.06
2023-05-16T22:37:03.631Z,18.05
2023-05-16T22:39:30.713Z,18.04
2023-05-16T22:41:57.601Z,18.03
2023-05-16T22:44:24.491Z,18.03
2023-05-16T22:46:51.459Z,18.04
2023-05-16T22:49:19.089Z,18.06
2023-05-16T22:51:46.282Z,18.08
2023-05-16T22:54:13.553Z,18.08
2023-05-16T22:56:40.749Z,18.09
2023-05-16T22:59:07.860Z,18.10
2023-05-16T23:01:35.577Z,18.11
2023-05-16T23:04:02.644Z,18.12
2023-05-16T23:06:29.935Z,18.13
2023-05-16T23:08:56.837Z,18.14
2023-05-16T23:11:23.757Z,18.14
2023-05-16T23:13:50.920Z,18.16
2023-05-16T23:16:18.247Z,18.18
2023-05-16T23:18:45.204Z,18.19
2023-05-16T23:21:12.365Z,18.19
2023-05-16T23:23:39.221Z,18.18
2023-05-16T23:26:06.079Z,18.16
2023-05-16T23:28:33.113Z,18.15
2023-05-16T23:30:59.972Z,18.13
2023-05-16T23:33:26.872Z,18.13
2023-05-16T23:35:53.812Z,18.14
2023-05-16T23:38:22.137Z,18.16
2023-05-16T23:40:48.998Z,18.15
2023-05-16T23:43:16.052Z,18.15
2023-05-16T23:45:43.098Z,18.13
2023-05-16T23:48:10.069Z,18.12
2023-05-16T23:50:37.411Z,18.12
2023-05-16T23:53:04.573Z,18.12
2023-05-16T23:55:31.620Z,18.12
2023-05-16T23:57:58.614Z,18.10
